sensor_id;sensor_type;location;lat;lon;timestamp;pressure;altitude;pressure_sealevel;temperature;humidity
71313;BME280;59104;44.738;20.612;2022-07-09T00:01:46;100342.00;;;20.18;63.93
71313;BME280;59104;44.738;20.612;2022-07-09T00:04:11;100330.97;;;20.13;63.97
71313;BME280;59104;44.738;20.612;2022-07-09T00:06:37;100332.59;;;20.14;63.86
71313;BME280;59104;44.738;20.612;2022-07-09T00:09:03;100297.59;;;20.06;63.96
71313;BME280;59104;44.738;20.612;2022-07-09T00:11:29;100302.63;;;20.02;63.46
71313;BME280;59104;44.738;20.612;2022-07-09T00:13:54;100333.63;;;20.19;63.88
71313;BME280;59104;44.738;20.612;2022-07-09T00:16:20;100330.13;;;20.12;63.96
71313;BME280;59104;44.738;20.612;2022-07-09T00:18:45;100320.66;;;19.96;63.79
71313;BME280;59104;44.738;20.612;2022-07-09T00:21:11;100342.09;;;20.05;63.56
71313;BME280;59104;44.738;20.612;2022-07-09T00:23:36;100328.91;;;20.08;63.51
71313;BME280;59104;44.738;20.612;2022-07-09T00:26:02;100318.69;;;20.04;63.58
71313;BME280;59104;44.738;20.612;2022-07-09T00:28:28;100311.22;;;19.99;63.60
71313;BME280;59104;44.738;20.612;2022-07-09T00:30:54;100317.97;;;19.90;63.78
71313;BME280;59104;44.738;20.612;2022-07-09T00:33:19;100340.59;;;20.09;63.77
71313;BME280;59104;44.738;20.612;2022-07-09T00:35:45;100333.72;;;20.06;63.80
71313;BME280;59104;44.738;20.612;2022-07-09T00:38:10;100340.06;;;20.00;64.37
71313;BME280;59104;44.738;20.612;2022-07-09T00:40:36;100322.53;;;19.96;63.96
71313;BME280;59104;44.738;20.612;2022-07-09T00:43:02;100336.44;;;20.06;64.22
71313;BME280;59104;44.738;20.612;2022-07-09T00:45:27;100342.53;;;20.02;64.10
71313;BME280;59104;44.738;20.612;2022-07-09T00:47:53;100341.13;;;19.92;64.15
71313;BME280;59104;44.738;20.612;2022-07-09T00:50:19;100329.69;;;19.90;64.37
71313;BME280;59104;44.738;20.612;2022-07-09T00:52:45;100336.53;;;19.93;64.31
71313;BME280;59104;44.738;20.612;2022-07-09T00:55:11;100352.56;;;20.01;64.47
71313;BME280;59104;44.738;20.612;2022-07-09T00:57:38;100356.56;;;19.98;64.79
71313;BME280;59104;44.738;20.612;2022-07-09T01:00:05;100355.31;;;19.94;65.35
71313;BME280;59104;44.738;20.612;2022-07-09T01:02:31;100351.81;;;19.87;64.94
71313;BME280;59104;44.738;20.612;2022-07-09T01:04:57;100351.88;;;19.81;65.34
71313;BME280;59104;44.738;20.612;2022-07-09T01:07:22;100337.72;;;19.72;65.44
71313;BME280;59104;44.738;20.612;2022-07-09T01:09:48;100359.59;;;19.84;66.39
71313;BME280;59104;44.738;20.612;2022-07-09T01:12:14;100354.72;;;19.92;65.50
71313;BME280;59104;44.738;20.612;2022-07-09T01:14:40;100352.00;;;19.92;65.46
71313;BME280;59104;44.738;20.612;2022-07-09T01:17:06;100344.91;;;19.91;65.58
71313;BME280;59104;44.738;20.612;2022-07-09T01:19:33;100348.03;;;19.88;65.36
71313;BME280;59104;44.738;20.612;2022-07-09T01:21:59;100356.00;;;19.90;65.47
71313;BME280;59104;44.738;20.612;2022-07-09T01:24:25;100345.78;;;19.85;65.99
71313;BME280;59104;44.738;20.612;2022-07-09T01:26:52;100350.38;;;19.85;65.47
71313;BME280;59104;44.738;20.612;2022-07-09T01:29:18;100338.72;;;19.78;65.44
71313;BME280;59104;44.738;20.612;2022-07-09T01:31:44;100321.69;;;19.64;65.63
71313;BME280;59104;44.738;20.612;2022-07-09T01:34:09;100344.94;;;19.85;65.75
71313;BME280;59104;44.738;20.612;2022-07-09T01:36:35;100326.81;;;19.79;65.50
71313;BME280;59104;44.738;20.612;2022-07-09T01:39:01;100347.22;;;19.88;65.40
71313;BME280;59104;44.738;20.612;2022-07-09T01:41:26;100352.44;;;19.89;65.83
71313;BME280;59104;44.738;20.612;2022-07-09T01:43:52;100352.25;;;19.84;65.58
71313;BME280;59104;44.738;20.612;2022-07-09T01:46:17;100335.22;;;19.71;65.46
71313;BME280;59104;44.738;20.612;2022-07-09T01:48:43;100341.22;;;19.79;65.60
71313;BME280;59104;44.738;20.612;2022-07-09T01:51:09;100345.38;;;19.82;65.41
71313;BME280;59104;44.738;20.612;2022-07-09T01:53:35;100347.06;;;19.83;65.35
71313;BME280;59104;44.738;20.612;2022-07-09T01:56:09;100351.44;;;19.84;65.31
71313;BME280;59104;44.738;20.612;2022-07-09T01:58:35;100354.59;;;19.81;65.48
71313;BME280;59104;44.738;20.612;2022-07-09T02:01:01;100359.44;;;19.72;65.53
71313;BME280;59104;44.738;20.612;2022-07-09T02:03:28;100351.13;;;19.67;65.49
71313;BME280;59104;44.738;20.612;2022-07-09T02:05:53;100348.84;;;19.64;65.81
71313;BME280;59104;44.738;20.612;2022-07-09T02:08:19;100368.19;;;19.74;65.59
71313;BME280;59104;44.738;20.612;2022-07-09T02:10:45;100339.66;;;19.59;65.69
71313;BME280;59104;44.738;20.612;2022-07-09T02:13:12;100337.22;;;19.51;65.88
71313;BME280;59104;44.738;20.612;2022-07-09T02:15:38;100379.88;;;19.75;65.29
71313;BME280;59104;44.738;20.612;2022-07-09T02:18:05;100372.59;;;19.69;65.69
71313;BME280;59104;44.738;20.612;2022-07-09T02:20:31;100385.97;;;19.70;65.76
71313;BME280;59104;44.738;20.612;2022-07-09T02:22:57;100377.84;;;19.64;66.15
71313;BME280;59104;44.738;20.612;2022-07-09T02:25:22;100380.59;;;19.57;66.18
71313;BME280;59104;44.738;20.612;2022-07-09T02:27:48;100379.75;;;19.57;66.72
71313;BME280;59104;44.738;20.612;2022-07-09T02:30:13;100376.88;;;19.52;66.83
71313;BME280;59104;44.738;20.612;2022-07-09T02:32:39;100391.47;;;19.51;66.61
71313;BME280;59104;44.738;20.612;2022-07-09T02:35:05;100386.91;;;19.44;66.99
71313;BME280;59104;44.738;20.612;2022-07-09T02:37:31;100376.25;;;19.36;67.37
71313;BME280;59104;44.738;20.612;2022-07-09T02:39:57;100372.09;;;19.34;67.15
71313;BME280;59104;44.738;20.612;2022-07-09T02:42:23;100391.31;;;19.45;67.35
71313;BME280;59104;44.738;20.612;2022-07-09T02:44:48;100362.75;;;19.23;67.49
71313;BME280;59104;44.738;20.612;2022-07-09T02:47:14;100373.56;;;19.30;67.74
71313;BME280;59104;44.738;20.612;2022-07-09T02:49:39;100383.38;;;19.44;67.31
71313;BME280;59104;44.738;20.612;2022-07-09T02:52:05;100389.41;;;19.46;67.49
71313;BME280;59104;44.738;20.612;2022-07-09T02:54:31;100351.28;;;19.21;67.12
71313;BME280;59104;44.738;20.612;2022-07-09T02:56:57;100392.97;;;19.40;66.52
71313;BME280;59104;44.738;20.612;2022-07-09T02:59:23;100404.66;;;19.40;66.01
71313;BME280;59104;44.738;20.612;2022-07-09T03:01:49;100356.16;;;19.06;66.48
71313;BME280;59104;44.738;20.612;2022-07-09T03:04:14;100405.09;;;19.24;65.80
71313;BME280;59104;44.738;20.612;2022-07-09T03:06:40;100405.94;;;19.31;65.70
71313;BME280;59104;44.738;20.612;2022-07-09T03:09:05;100371.59;;;19.06;65.36
71313;BME280;59104;44.738;20.612;2022-07-09T03:11:32;100404.47;;;19.29;64.74
71313;BME280;59104;44.738;20.612;2022-07-09T03:13:58;100400.72;;;19.23;63.64
71313;BME280;59104;44.738;20.612;2022-07-09T03:16:24;100392.19;;;19.26;62.67
71313;BME280;59104;44.738;20.612;2022-07-09T03:18:49;100367.19;;;19.11;62.41
71313;BME280;59104;44.738;20.612;2022-07-09T03:21:15;100401.75;;;19.29;61.56
71313;BME280;59104;44.738;20.612;2022-07-09T03:23:40;100395.91;;;19.32;61.58
71313;BME280;59104;44.738;20.612;2022-07-09T03:26:06;100406.09;;;19.36;61.05
71313;BME280;59104;44.738;20.612;2022-07-09T03:28:33;100416.34;;;19.34;61.26
71313;BME280;59104;44.738;20.612;2022-07-09T03:31:00;100414.66;;;19.33;61.35
71313;BME280;59104;44.738;20.612;2022-07-09T03:33:26;100406.16;;;19.23;61.52
71313;BME280;59104;44.738;20.612;2022-07-09T03:35:54;100398.25;;;19.15;61.66
71313;BME280;59104;44.738;20.612;2022-07-09T03:38:20;100411.97;;;19.27;61.78
71313;BME280;59104;44.738;20.612;2022-07-09T03:40:46;100416.38;;;19.21;61.97
71313;BME280;59104;44.738;20.612;2022-07-09T03:43:12;100402.03;;;19.08;62.63
71313;BME280;59104;44.738;20.612;2022-07-09T03:45:38;100424.94;;;19.18;62.59
71313;BME280;59104;44.738;20.612;2022-07-09T03:48:04;100418.69;;;19.11;62.44
71313;BME280;59104;44.738;20.612;2022-07-09T03:50:30;100413.09;;;19.06;62.94
71313;BME280;59104;44.738;20.612;2022-07-09T03:52:56;100420.16;;;19.07;63.05
71313;BME280;59104;44.738;20.612;2022-07-09T03:55:23;100418.09;;;19.03;63.06
71313;BME280;59104;44.738;20.612;2022-07-09T03:57:48;100417.25;;;19.02;63.20
71313;BME280;59104;44.738;20.612;2022-07-09T04:00:14;100431.22;;;19.12;63.63
71313;BME280;59104;44.738;20.612;2022-07-09T04:02:40;100449.59;;;19.10;63.63
71313;BME280;59104;44.738;20.612;2022-07-09T04:05:07;100424.16;;;18.98;63.63
71313;BME280;59104;44.738;20.612;2022-07-09T04:07:32;100435.41;;;18.95;64.00
71313;BME280;59104;44.738;20.612;2022-07-09T04:09:58;100459.63;;;18.97;64.98
71313;BME280;59104;44.738;20.612;2022-07-09T04:12:24;100441.91;;;18.81;65.83
71313;BME280;59104;44.738;20.612;2022-07-09T04:14:50;100442.09;;;18.73;66.45
71313;BME280;59104;44.738;20.612;2022-07-09T04:17:15;100449.63;;;18.71;67.20
71313;BME280;59104;44.738;20.612;2022-07-09T04:19:41;100458.59;;;18.71;68.62
71313;BME280;59104;44.738;20.612;2022-07-09T04:22:06;100466.31;;;18.74;69.28
71313;BME280;59104;44.738;20.612;2022-07-09T04:24:32;100462.53;;;18.62;70.27
71313;BME280;59104;44.738;20.612;2022-07-09T04:26:57;100467.56;;;18.59;70.81
71313;BME280;59104;44.738;20.612;2022-07-09T04:29:23;100429.78;;;18.37;70.93
71313;BME280;59104;44.738;20.612;2022-07-09T04:31:49;100460.88;;;18.55;70.86
71313;BME280;59104;44.738;20.612;2022-07-09T04:34:15;100449.16;;;18.48;71.52
71313;BME280;59104;44.738;20.612;2022-07-09T04:36:41;100464.44;;;18.55;71.99
71313;BME280;59104;44.738;20.612;2022-07-09T04:39:06;100459.84;;;18.56;73.08
71313;BME280;59104;44.738;20.612;2022-07-09T04:41:32;100466.66;;;18.45;73.25
71313;BME280;59104;44.738;20.612;2022-07-09T04:43:58;100492.72;;;18.46;74.41
71313;BME280;59104;44.738;20.612;2022-07-09T04:46:23;100472.47;;;18.22;74.93
71313;BME280;59104;44.738;20.612;2022-07-09T04:48:50;100491.00;;;18.19;75.96
71313;BME280;59104;44.738;20.612;2022-07-09T04:51:16;100474.50;;;18.01;77.93
71313;BME280;59104;44.738;20.612;2022-07-09T04:53:42;100479.69;;;18.02;78.31
71313;BME280;59104;44.738;20.612;2022-07-09T04:56:07;100471.97;;;17.92;78.73
71313;BME280;59104;44.738;20.612;2022-07-09T04:58:34;100474.84;;;17.84;79.54
71313;BME280;59104;44.738;20.612;2022-07-09T05:00:59;100504.81;;;17.83;80.23
71313;BME280;59104;44.738;20.612;2022-07-09T05:03:25;100482.44;;;17.61;80.26
71313;BME280;59104;44.738;20.612;2022-07-09T05:05:51;100495.97;;;17.61;81.20
71313;BME280;59104;44.738;20.612;2022-07-09T05:08:18;100497.63;;;17.56;80.82
71313;BME280;59104;44.738;20.612;2022-07-09T05:10:44;100504.69;;;17.57;81.70
71313;BME280;59104;44.738;20.612;2022-07-09T05:13:09;100506.91;;;17.53;80.24
71313;BME280;59104;44.738;20.612;2022-07-09T05:15:35;100520.50;;;17.60;81.33
71313;BME280;59104;44.738;20.612;2022-07-09T05:18:01;100516.38;;;17.64;81.54
71313;BME280;59104;44.738;20.612;2022-07-09T05:20:26;100515.16;;;17.73;80.61
71313;BME280;59104;44.738;20.612;2022-07-09T05:22:53;100518.97;;;17.78;79.38
71313;BME280;59104;44.738;20.612;2022-07-09T05:25:18;100527.09;;;17.78;79.43
71313;BME280;59104;44.738;20.612;2022-07-09T05:27:45;100523.13;;;17.81;78.85
71313;BME280;59104;44.738;20.612;2022-07-09T05:30:12;100508.50;;;17.69;79.06
71313;BME280;59104;44.738;20.612;2022-07-09T05:32:40;100528.94;;;17.78;79.16
71313;BME280;59104;44.738;20.612;2022-07-09T05:35:06;100523.09;;;17.74;79.65
71313;BME280;59104;44.738;20.612;2022-07-09T05:37:32;100543.34;;;17.85;79.05
71313;BME280;59104;44.738;20.612;2022-07-09T05:39:58;100529.97;;;17.77;79.12
71313;BME280;59104;44.738;20.612;2022-07-09T05:42:25;100541.06;;;17.88;79.41
71313;BME280;59104;44.738;20.612;2022-07-09T05:44:51;100524.38;;;17.78;78.89
71313;BME280;59104;44.738;20.612;2022-07-09T05:47:16;100529.63;;;17.93;79.84
71313;BME280;59104;44.738;20.612;2022-07-09T05:49:42;100545.56;;;18.16;79.29
71313;BME280;59104;44.738;20.612;2022-07-09T05:52:08;100544.97;;;18.33;78.79
71313;BME280;59104;44.738;20.612;2022-07-09T05:54:33;100530.16;;;18.23;77.89
71313;BME280;59104;44.738;20.612;2022-07-09T05:56:59;100539.72;;;18.19;78.03
71313;BME280;59104;44.738;20.612;2022-07-09T05:59:25;100529.47;;;18.08;78.81
71313;BME280;59104;44.738;20.612;2022-07-09T06:01:50;100512.19;;;18.02;78.03
71313;BME280;59104;44.738;20.612;2022-07-09T06:04:16;100546.00;;;18.19;77.80
71313;BME280;59104;44.738;20.612;2022-07-09T06:06:42;100541.38;;;18.13;77.86
71313;BME280;59104;44.738;20.612;2022-07-09T06:09:07;100539.28;;;18.09;77.49
71313;BME280;59104;44.738;20.612;2022-07-09T06:11:33;100545.34;;;18.17;78.42
71313;BME280;59104;44.738;20.612;2022-07-09T06:13:59;100530.56;;;18.13;77.98
71313;BME280;59104;44.738;20.612;2022-07-09T06:16:24;100550.00;;;18.30;77.11
71313;BME280;59104;44.738;20.612;2022-07-09T06:18:50;100539.34;;;18.28;77.35
71313;BME280;59104;44.738;20.612;2022-07-09T06:21:15;100545.00;;;18.40;77.54
71313;BME280;59104;44.738;20.612;2022-07-09T06:23:41;100517.69;;;18.28;77.42
71313;BME280;59104;44.738;20.612;2022-07-09T06:26:07;100538.34;;;18.42;77.01
71313;BME280;59104;44.738;20.612;2022-07-09T06:28:35;100545.00;;;18.47;75.48
71313;BME280;59104;44.738;20.612;2022-07-09T06:31:01;100543.78;;;18.49;75.94
71313;BME280;59104;44.738;20.612;2022-07-09T06:33:26;100532.09;;;18.42;76.00
71313;BME280;59104;44.738;20.612;2022-07-09T06:35:52;100541.13;;;18.56;75.07
71313;BME280;59104;44.738;20.612;2022-07-09T06:38:18;100554.25;;;18.78;75.98
71313;BME280;59104;44.738;20.612;2022-07-09T06:40:43;100548.03;;;18.78;73.82
71313;BME280;59104;44.738;20.612;2022-07-09T06:43:09;100537.19;;;18.78;73.65
71313;BME280;59104;44.738;20.612;2022-07-09T06:45:42;100551.16;;;19.08;74.51
71313;BME280;59104;44.738;20.612;2022-07-09T06:48:09;100547.59;;;19.33;74.35
71313;BME280;59104;44.738;20.612;2022-07-09T06:50:34;100529.25;;;19.49;73.81
71313;BME280;59104;44.738;20.612;2022-07-09T06:53:00;100541.72;;;19.63;72.48
71313;BME280;59104;44.738;20.612;2022-07-09T06:55:26;100542.13;;;19.66;73.50
71313;BME280;59104;44.738;20.612;2022-07-09T06:57:51;100524.59;;;19.69;72.50
71313;BME280;59104;44.738;20.612;2022-07-09T07:00:17;100538.38;;;19.74;72.83
71313;BME280;59104;44.738;20.612;2022-07-09T07:02:43;100553.41;;;19.76;70.11
71313;BME280;59104;44.738;20.612;2022-07-09T07:05:09;100533.56;;;19.76;71.23
71313;BME280;59104;44.738;20.612;2022-07-09T07:07:34;100528.34;;;19.74;71.09
71313;BME280;59104;44.738;20.612;2022-07-09T07:10:00;100554.94;;;20.04;70.27
71313;BME280;59104;44.738;20.612;2022-07-09T07:12:25;100548.47;;;20.05;68.90
71313;BME280;59104;44.738;20.612;2022-07-09T07:14:51;100535.22;;;19.77;68.77
71313;BME280;59104;44.738;20.612;2022-07-09T07:17:17;100555.13;;;19.58;69.32
71313;BME280;59104;44.738;20.612;2022-07-09T07:19:42;100550.75;;;19.50;70.70
71313;BME280;59104;44.738;20.612;2022-07-09T07:22:08;100538.00;;;19.57;70.46
71313;BME280;59104;44.738;20.612;2022-07-09T07:24:34;100556.28;;;19.88;69.05
71313;BME280;59104;44.738;20.612;2022-07-09T07:26:59;100564.41;;;19.88;69.50
71313;BME280;59104;44.738;20.612;2022-07-09T07:29:25;100551.91;;;19.87;68.96
71313;BME280;59104;44.738;20.612;2022-07-09T07:31:52;100546.69;;;19.85;69.38
71313;BME280;59104;44.738;20.612;2022-07-09T07:34:17;100526.22;;;19.83;69.46
71313;BME280;59104;44.738;20.612;2022-07-09T07:36:48;100545.56;;;20.06;68.43
71313;BME280;59104;44.738;20.612;2022-07-09T07:39:13;100556.50;;;20.37;68.97
71313;BME280;59104;44.738;20.612;2022-07-09T07:41:39;100549.16;;;20.44;69.57
71313;BME280;59104;44.738;20.612;2022-07-09T07:44:04;100563.31;;;20.53;68.25
71313;BME280;59104;44.738;20.612;2022-07-09T07:46:30;100563.78;;;20.43;68.41
71313;BME280;59104;44.738;20.612;2022-07-09T07:48:55;100551.88;;;20.44;67.99
71313;BME280;59104;44.738;20.612;2022-07-09T07:51:21;100582.75;;;20.57;68.20
71313;BME280;59104;44.738;20.612;2022-07-09T07:53:47;100562.41;;;20.66;69.45
71313;BME280;59104;44.738;20.612;2022-07-09T07:56:13;100556.69;;;20.80;68.75
71313;BME280;59104;44.738;20.612;2022-07-09T07:58:38;100573.41;;;21.09;67.48
71313;BME280;59104;44.738;20.612;2022-07-09T08:01:04;100566.25;;;21.14;65.87
71313;BME280;59104;44.738;20.612;2022-07-09T08:03:29;100565.91;;;21.29;65.38
71313;BME280;59104;44.738;20.612;2022-07-09T08:05:55;100528.53;;;20.93;64.57
71313;BME280;59104;44.738;20.612;2022-07-09T08:08:21;100559.41;;;21.05;65.71
71313;BME280;59104;44.738;20.612;2022-07-09T08:10:47;100565.03;;;21.10;65.46
71313;BME280;59104;44.738;20.612;2022-07-09T08:13:14;100549.03;;;21.20;65.59
71313;BME280;59104;44.738;20.612;2022-07-09T08:15:40;100560.97;;;21.44;64.13
71313;BME280;59104;44.738;20.612;2022-07-09T08:18:06;100561.19;;;21.42;63.84
71313;BME280;59104;44.738;20.612;2022-07-09T08:20:34;100566.63;;;21.42;64.23
71313;BME280;59104;44.738;20.612;2022-07-09T08:23:02;100562.41;;;21.46;64.52
71313;BME280;59104;44.738;20.612;2022-07-09T08:25:28;100535.13;;;21.53;62.98
71313;BME280;59104;44.738;20.612;2022-07-09T08:27:54;100540.81;;;21.70;62.29
71313;BME280;59104;44.738;20.612;2022-07-09T08:30:19;100565.13;;;21.89;61.58
71313;BME280;59104;44.738;20.612;2022-07-09T08:32:45;100557.47;;;21.80;62.13
71313;BME280;59104;44.738;20.612;2022-07-09T08:35:11;100548.66;;;21.78;61.96
71313;BME280;59104;44.738;20.612;2022-07-09T08:37:36;100536.94;;;21.77;62.27
71313;BME280;59104;44.738;20.612;2022-07-09T08:40:05;100552.53;;;21.88;61.56
71313;BME280;59104;44.738;20.612;2022-07-09T08:42:31;100562.66;;;21.81;61.83
71313;BME280;59104;44.738;20.612;2022-07-09T08:44:57;100539.91;;;21.58;62.42
71313;BME280;59104;44.738;20.612;2022-07-09T08:47:23;100570.00;;;21.63;62.69
71313;BME280;59104;44.738;20.612;2022-07-09T08:49:55;100549.50;;;21.60;62.81
71313;BME280;59104;44.738;20.612;2022-07-09T08:52:23;100555.34;;;21.82;63.26
71313;BME280;59104;44.738;20.612;2022-07-09T08:54:48;100558.84;;;22.07;61.60
71313;BME280;59104;44.738;20.612;2022-07-09T08:57:14;100525.09;;;22.08;61.52
71313;BME280;59104;44.738;20.612;2022-07-09T08:59:40;100552.03;;;22.46;60.85
71313;BME280;59104;44.738;20.612;2022-07-09T09:02:07;100551.44;;;22.44;60.97
71313;BME280;59104;44.738;20.612;2022-07-09T09:04:36;100552.16;;;22.51;60.83
71313;BME280;59104;44.738;20.612;2022-07-09T09:07:18;100538.63;;;22.44;60.41
71313;BME280;59104;44.738;20.612;2022-07-09T09:09:45;100539.31;;;22.28;60.25
71313;BME280;59104;44.738;20.612;2022-07-09T09:12:11;100535.06;;;22.14;60.56
71313;BME280;59104;44.738;20.612;2022-07-09T09:14:37;100532.28;;;22.02;61.06
71313;BME280;59104;44.738;20.612;2022-07-09T09:17:08;100551.72;;;22.06;60.87
71313;BME280;59104;44.738;20.612;2022-07-09T09:19:38;100550.16;;;21.98;61.10
71313;BME280;59104;44.738;20.612;2022-07-09T09:22:05;100551.03;;;22.11;61.58
71313;BME280;59104;44.738;20.612;2022-07-09T09:24:31;100529.56;;;22.02;61.35
71313;BME280;59104;44.738;20.612;2022-07-09T09:27:01;100536.88;;;22.20;60.83
71313;BME280;59104;44.738;20.612;2022-07-09T09:29:27;100549.88;;;22.36;60.56
71313;BME280;59104;44.738;20.612;2022-07-09T09:31:54;100542.53;;;22.37;59.84
71313;BME280;59104;44.738;20.612;2022-07-09T09:34:21;100543.75;;;22.52;58.63
71313;BME280;59104;44.738;20.612;2022-07-09T09:36:48;100535.84;;;22.63;58.77
71313;BME280;59104;44.738;20.612;2022-07-09T09:39:24;100536.25;;;22.66;57.93
71313;BME280;59104;44.738;20.612;2022-07-09T09:41:53;100531.81;;;22.53;58.42
71313;BME280;59104;44.738;20.612;2022-07-09T09:44:23;100529.75;;;22.49;59.73
71313;BME280;59104;44.738;20.612;2022-07-09T09:46:52;100541.47;;;22.38;59.50
71313;BME280;59104;44.738;20.612;2022-07-09T09:49:18;100528.75;;;22.32;60.33
71313;BME280;59104;44.738;20.612;2022-07-09T09:54:19;100535.94;;;22.26;60.93
71313;BME280;59104;44.738;20.612;2022-07-09T09:56:46;100538.94;;;22.25;59.51
71313;BME280;59104;44.738;20.612;2022-07-09T09:59:12;100517.34;;;22.23;60.07
71313;BME280;59104;44.738;20.612;2022-07-09T10:01:42;100538.19;;;22.47;60.56
71313;BME280;59104;44.738;20.612;2022-07-09T10:04:09;100509.34;;;22.40;59.34
71313;BME280;59104;44.738;20.612;2022-07-09T10:06:35;100496.03;;;22.32;58.80
71313;BME280;59104;44.738;20.612;2022-07-09T10:09:06;100523.28;;;22.62;58.23
71313;BME280;59104;44.738;20.612;2022-07-09T10:11:43;100513.72;;;22.71;57.56
71313;BME280;59104;44.738;20.612;2022-07-09T10:16:54;100498.34;;;22.76;57.15
71313;BME280;59104;44.738;20.612;2022-07-09T10:19:29;100505.81;;;22.81;56.24
71313;BME280;59104;44.738;20.612;2022-07-09T10:21:57;100511.25;;;22.81;55.54
71313;BME280;59104;44.738;20.612;2022-07-09T10:24:28;100512.84;;;23.00;54.67
71313;BME280;59104;44.738;20.612;2022-07-09T10:27:05;100511.41;;;22.97;55.09
71313;BME280;59104;44.738;20.612;2022-07-09T10:29:36;100484.47;;;22.89;55.30
71313;BME280;59104;44.738;20.612;2022-07-09T10:32:02;100497.28;;;23.00;56.47
71313;BME280;59104;44.738;20.612;2022-07-09T10:35:04;100493.28;;;23.15;56.35
71313;BME280;59104;44.738;20.612;2022-07-09T10:37:43;100503.81;;;23.34;56.28
71313;BME280;59104;44.738;20.612;2022-07-09T10:40:14;100490.53;;;23.61;54.89
71313;BME280;59104;44.738;20.612;2022-07-09T10:42:42;100461.81;;;23.58;53.18
71313;BME280;59104;44.738;20.612;2022-07-09T10:47:44;100467.38;;;24.03;52.02
71313;BME280;59104;44.738;20.612;2022-07-09T10:50:12;100461.75;;;24.10;50.74
71313;BME280;59104;44.738;20.612;2022-07-09T10:52:38;100476.16;;;24.05;51.12
71313;BME280;59104;44.738;20.612;2022-07-09T10:55:04;100435.28;;;23.99;50.88
71313;BME280;59104;44.738;20.612;2022-07-09T10:57:30;100466.13;;;24.23;51.70
71313;BME280;59104;44.738;20.612;2022-07-09T10:59:56;100482.66;;;24.44;50.80
71313;BME280;59104;44.738;20.612;2022-07-09T11:02:22;100492.41;;;24.40;49.96
71313;BME280;59104;44.738;20.612;2022-07-09T11:04:52;100463.06;;;24.19;50.18
71313;BME280;59104;44.738;20.612;2022-07-09T11:07:19;100453.09;;;24.13;51.71
71313;BME280;59104;44.738;20.612;2022-07-09T11:09:46;100464.91;;;24.30;52.04
71313;BME280;59104;44.738;20.612;2022-07-09T11:12:15;100465.00;;;24.35;51.23
71313;BME280;59104;44.738;20.612;2022-07-09T11:14:50;100473.47;;;24.34;50.92
71313;BME280;59104;44.738;20.612;2022-07-09T11:17:21;100466.75;;;24.41;51.38
71313;BME280;59104;44.738;20.612;2022-07-09T11:19:47;100430.94;;;24.26;49.59
71313;BME280;59104;44.738;20.612;2022-07-09T11:22:17;100448.63;;;24.69;50.62
71313;BME280;59104;44.738;20.612;2022-07-09T11:24:43;100441.00;;;24.71;49.54
71313;BME280;59104;44.738;20.612;2022-07-09T11:27:09;100444.38;;;24.44;49.83
71313;BME280;59104;44.738;20.612;2022-07-09T11:29:36;100454.88;;;24.36;49.53
71313;BME280;59104;44.738;20.612;2022-07-09T11:32:03;100458.41;;;24.20;48.60
71313;BME280;59104;44.738;20.612;2022-07-09T11:34:29;100440.50;;;24.12;48.32
71313;BME280;59104;44.738;20.612;2022-07-09T11:36:57;100444.88;;;24.41;50.26
71313;BME280;59104;44.738;20.612;2022-07-09T11:41:49;100433.69;;;24.76;48.49
71313;BME280;59104;44.738;20.612;2022-07-09T11:44:26;100402.13;;;24.69;48.16
71313;BME280;59104;44.738;20.612;2022-07-09T11:47:19;100440.13;;;24.82;48.24
71313;BME280;59104;44.738;20.612;2022-07-09T11:49:48;100415.47;;;24.65;48.46
71313;BME280;59104;44.738;20.612;2022-07-09T11:52:20;100429.81;;;24.72;48.06
71313;BME280;59104;44.738;20.612;2022-07-09T11:55:00;100419.59;;;24.67;48.50
71313;BME280;59104;44.738;20.612;2022-07-09T11:57:28;100411.78;;;24.59;49.06
71313;BME280;59104;44.738;20.612;2022-07-09T11:59:55;100400.22;;;24.69;48.91
71313;BME280;59104;44.738;20.612;2022-07-09T12:04:51;100381.13;;;24.74;48.96
71313;BME280;59104;44.738;20.612;2022-07-09T12:07:16;100365.44;;;24.70;48.70
71313;BME280;59104;44.738;20.612;2022-07-09T12:09:42;100383.38;;;24.94;48.14
71313;BME280;59104;44.738;20.612;2022-07-09T12:12:08;100364.22;;;24.94;45.58
71313;BME280;59104;44.738;20.612;2022-07-09T12:14:34;100375.94;;;25.11;47.05
71313;BME280;59104;44.738;20.612;2022-07-09T12:16:59;100352.97;;;25.12;46.50
71313;BME280;59104;44.738;20.612;2022-07-09T12:19:25;100362.28;;;25.33;44.91
71313;BME280;59104;44.738;20.612;2022-07-09T12:21:51;100375.16;;;25.54;45.34
71313;BME280;59104;44.738;20.612;2022-07-09T12:24:16;100357.25;;;25.68;44.98
71313;BME280;59104;44.738;20.612;2022-07-09T12:26:42;100355.03;;;25.65;45.00
71313;BME280;59104;44.738;20.612;2022-07-09T12:29:08;100347.25;;;25.57;44.17
71313;BME280;59104;44.738;20.612;2022-07-09T12:31:33;100348.09;;;25.57;44.44
71313;BME280;59104;44.738;20.612;2022-07-09T12:34:04;100336.28;;;25.57;43.66
71313;BME280;59104;44.738;20.612;2022-07-09T12:36:31;100364.16;;;25.76;43.97
71313;BME280;59104;44.738;20.612;2022-07-09T12:38:56;100349.34;;;25.72;43.19
71313;BME280;59104;44.738;20.612;2022-07-09T12:41:22;100354.06;;;25.54;44.22
71313;BME280;59104;44.738;20.612;2022-07-09T12:43:47;100328.69;;;25.21;42.95
71313;BME280;59104;44.738;20.612;2022-07-09T12:46:13;100344.75;;;25.34;42.42
71313;BME280;59104;44.738;20.612;2022-07-09T12:48:38;100325.44;;;25.45;43.68
71313;BME280;59104;44.738;20.612;2022-07-09T12:51:04;100352.38;;;25.75;43.58